Time;durP1;ratioP1;P1;durP2;ratioP2;P2;SDS_P1;SDS_P2;PMS_P1;PMS_P2;Temp;Humidity;BMP_temperature;BMP_pressure;BME280_temperature;BME280_humidity;BME280_pressure;Samples;Min_cycle;Max_cycle;Signal;HPM_P1;HPM_P2
2022/03/11 00:00:00;;;;;;;;;;;20.30;27.10;;;;;;691874;28;818;-84
2022/03/11 00:00:21;;;;;;;;;;;20.30;27.20;;;;;;691180;28;1276;-85
2022/03/11 00:00:45;;;;;;;;;;;20.30;27.40;;;;;;686346;28;1248;-84
2022/03/11 00:01:05;;;;;;;;;;;20.30;27.10;;;;;;685983;28;1372;-84
2022/03/11 00:01:26;;;;;;;;;;;20.30;27.10;;;;;;683312;28;1356;-87
2022/03/11 00:01:46;;;;;;;;;;;20.30;27.20;;;;;;683349;28;1070;-86
2022/03/11 00:02:07;;;;;;;;;;;20.30;27.40;;;;;;684129;28;1220;-86
2022/03/11 00:02:28;;;;;;;;;;;20.30;27.30;;;;;;686795;28;842;-86
2022/03/11 00:02:48;;;;;;;;;;;20.30;27.30;;;;;;686176;28;1228;-86
2022/03/11 00:03:10;;;;;;;;;;;20.30;27.00;;;;;;688345;28;1303;-86
2022/03/11 00:03:31;;;;;;;;;;;20.30;26.90;;;;;;685977;28;1353;-87
2022/03/11 00:03:51;;;;;;;;;;;20.30;26.90;;;;;;686587;28;997;-86
2022/03/11 00:04:12;;;;;;;;;;;20.30;27.30;;;;;;688912;28;1467;-86
2022/03/11 00:04:33;;;;;;;;;;;20.30;27.40;;;;;;686219;28;1206;-88
2022/03/11 00:04:53;;;;;;;;;;;20.30;27.30;;;;;;683755;28;1295;-87
2022/03/11 00:05:14;;;;;;;;;;;20.30;27.00;;;;;;681386;28;1216;-87
2022/03/11 00:05:34;;;;;;;;;;;20.30;26.90;;;;;;684059;29;974;-87
2022/03/11 00:05:55;;;;;;;;;;;20.30;27.10;;;;;;683975;28;1083;-88
2022/03/11 00:06:15;;;;;;;;;;;20.30;27.20;;;;;;684114;28;1109;-88
2022/03/11 00:06:36;;;;;;;;;;;20.30;27.10;;;;;;686948;28;1325;-87
2022/03/11 00:06:57;;;;;;;;;;;20.30;27.20;;;;;;686731;28;1253;-86
2022/03/11 00:07:18;;;;;;;;;;;20.30;27.00;;;;;;685661;28;1246;-87
2022/03/11 00:07:38;;;;;;;;;;;20.30;27.10;;;;;;682589;28;1343;-86
2022/03/11 00:07:59;;;;;;;;;;;20.30;26.90;;;;;;683107;28;1465;-88
2022/03/11 00:08:19;;;;;;;;;;;20.30;26.90;;;;;;685673;28;1211;-86
2022/03/11 00:08:41;;;;;;;;;;;20.30;26.90;;;;;;683156;28;1289;-86
2022/03/11 00:09:02;;;;;;;;;;;20.30;27.20;;;;;;682910;28;1503;-87
2022/03/11 00:09:23;;;;;;;;;;;20.30;27.00;;;;;;685061;28;1195;-85
2022/03/11 00:09:43;;;;;;;;;;;20.30;27.40;;;;;;688039;28;1185;-86
2022/03/11 00:10:04;;;;;;;;;;;20.30;27.20;;;;;;685455;28;1145;-83
2022/03/11 00:10:25;;;;;;;;;;;20.30;27.10;;;;;;688016;28;974;-86
2022/03/11 00:10:45;;;;;;;;;;;20.30;27.10;;;;;;690113;28;1394;-84
2022/03/11 00:11:06;;;;;;;;;;;20.30;27.50;;;;;;689789;28;1102;-85
2022/03/11 00:11:26;;;;;;;;;;;20.30;26.90;;;;;;690065;28;1359;-85
2022/03/11 00:11:47;;;;;;;;;;;20.30;27.50;;;;;;689749;28;1911;-85
2022/03/11 00:12:08;;;;;;;;;;;20.30;26.90;;;;;;689979;28;1333;-82
2022/03/11 00:12:29;;;;;;;;;;;20.30;27.00;;;;;;689563;28;826;-84
2022/03/11 00:12:49;;;;;;;;;;;20.30;27.20;;;;;;689395;28;775;-84
2022/03/11 00:13:10;;;;;;;;;;;20.30;27.30;;;;;;691260;28;1502;-84
2022/03/11 00:13:31;;;;;;;;;;;20.30;27.60;;;;;;691507;28;1671;-84
2022/03/11 00:13:51;;;;;;;;;;;20.30;27.40;;;;;;691319;28;1330;-85
2022/03/11 00:14:12;;;;;;;;;;;20.30;27.30;;;;;;691527;28;1333;-84
2022/03/11 00:14:32;;;;;;;;;;;20.30;27.00;;;;;;688596;28;1279;-84
2022/03/11 00:14:54;;;;;;;;;;;20.30;26.90;;;;;;688435;28;779;-84
2022/03/11 00:15:15;;;;;;;;;;;20.30;27.20;;;;;;686404;28;1157;-84
2022/03/11 00:15:35;;;;;;;;;;;20.30;26.90;;;;;;686051;28;1237;-86
2022/03/11 00:15:56;;;;;;;;;;;20.30;27.00;;;;;;683278;28;1339;-84
2022/03/11 00:16:16;;;;;;;;;;;20.30;27.10;;;;;;683836;28;807;-84
2022/03/11 00:16:37;;;;;;;;;;;20.30;27.00;;;;;;683229;28;1324;-84
2022/03/11 00:16:57;;;;;;;;;;;20.30;26.90;;;;;;686545;28;1180;-84
2022/03/11 00:17:18;;;;;;;;;;;20.40;26.90;;;;;;688939;28;815;-84
2022/03/11 00:17:39;;;;;;;;;;;20.30;27.00;;;;;;688538;28;1219;-85
2022/03/11 00:18:00;;;;;;;;;;;20.20;26.90;;;;;;688654;28;1169;-84
2022/03/11 00:18:20;;;;;;;;;;;18.60;26.20;;;;;;686235;28;1385;-84
2022/03/11 00:18:41;;;;;;;;;;;20.20;26.90;;;;;;685610;28;1228;-85
2022/03/11 00:19:01;;;;;;;;;;;20.30;27.30;;;;;;683538;29;807;-83
2022/03/11 00:19:22;;;;;;;;;;;20.30;27.00;;;;;;683822;28;878;-85
2022/03/11 00:19:43;;;;;;;;;;;20.30;26.90;;;;;;688676;28;1109;-85
2022/03/11 00:20:03;;;;;;;;;;;20.20;27.00;;;;;;689198;28;1251;-84
2022/03/11 00:20:26;;;;;;;;;;;20.20;26.80;;;;;;689344;28;1073;-83
2022/03/11 00:20:46;;;;;;;;;;;20.20;27.30;;;;;;692027;28;1196;-84
2022/03/11 00:21:11;;;;;;;;;;;20.20;26.90;;;;;;689572;28;1255;-83
2022/03/11 00:21:32;;;;;;;;;;;20.30;27.00;;;;;;685970;28;878;-83
2022/03/11 00:21:55;;;;;;;;;;;20.20;27.20;;;;;;684413;29;894;-83
2022/03/11 00:22:16;;;;;;;;;;;20.20;27.60;;;;;;685768;28;1215;-85
2022/03/11 00:22:37;;;;;;;;;;;20.20;27.20;;;;;;688379;28;1335;-84
2022/03/11 00:22:58;;;;;;;;;;;20.20;27.80;;;;;;691126;28;1386;-84
2022/03/11 00:23:18;;;;;;;;;;;20.30;27.20;;;;;;689653;28;1172;-84
2022/03/11 00:23:39;;;;;;;;;;;20.20;27.20;;;;;;690783;28;811;-86
2022/03/11 00:24:00;;;;;;;;;;;20.20;26.80;;;;;;689693;28;1206;-83
2022/03/11 00:24:21;;;;;;;;;;;20.20;26.80;;;;;;689428;28;1218;-83
2022/03/11 00:24:41;;;;;;;;;;;20.20;26.80;;;;;;689735;28;1153;-83
2022/03/11 00:25:02;;;;;;;;;;;20.20;26.80;;;;;;689781;28;1025;-83
2022/03/11 00:25:23;;;;;;;;;;;20.30;26.90;;;;;;687401;28;1314;-83
2022/03/11 00:25:44;;;;;;;;;;;20.30;26.90;;;;;;684955;28;1309;-82
2022/03/11 00:26:05;;;;;;;;;;;20.20;26.80;;;;;;687267;28;1044;-88
2022/03/11 00:26:25;;;;;;;;;;;20.20;27.10;;;;;;687376;28;1317;-85
2022/03/11 00:26:46;;;;;;;;;;;20.20;26.70;;;;;;690064;28;874;-84
2022/03/11 00:27:06;;;;;;;;;;;20.20;26.70;;;;;;688094;28;1191;-87
2022/03/11 00:27:27;;;;;;;;;;;20.20;26.90;;;;;;687532;28;1297;-83
2022/03/11 00:27:47;;;;;;;;;;;20.20;26.70;;;;;;690021;28;1228;-83
2022/03/11 00:28:08;;;;;;;;;;;20.20;26.70;;;;;;689412;28;1176;-84
2022/03/11 00:28:29;;;;;;;;;;;20.20;26.80;;;;;;687183;28;1421;-83
2022/03/11 00:28:49;;;;;;;;;;;20.20;27.10;;;;;;686112;28;1115;-84
2022/03/11 00:29:10;;;;;;;;;;;20.20;26.70;;;;;;685532;28;1235;-83
2022/03/11 00:29:32;;;;;;;;;;;20.20;26.80;;;;;;687576;28;863;-83
2022/03/11 00:29:52;;;;;;;;;;;20.20;26.90;;;;;;685990;28;898;-83
2022/03/11 00:30:13;;;;;;;;;;;20.20;26.60;;;;;;688885;28;792;-86
2022/03/11 00:30:33;;;;;;;;;;;20.20;26.70;;;;;;691692;28;878;-85
2022/03/11 00:30:54;;;;;;;;;;;20.20;26.90;;;;;;692951;28;1036;-85
2022/03/11 00:31:15;;;;;;;;;;;20.10;27.20;;;;;;692647;28;1248;-88
2022/03/11 00:31:35;;;;;;;;;;;20.10;27.70;;;;;;689884;28;1221;-86
2022/03/11 00:31:56;;;;;;;;;;;20.20;27.00;;;;;;690134;28;1871;-88
2022/03/11 00:32:16;;;;;;;;;;;20.20;27.00;;;;;;690890;28;1140;-87
2022/03/11 00:32:38;;;;;;;;;;;20.20;26.80;;;;;;687410;28;1355;-86
2022/03/11 00:33:00;;;;;;;;;;;20.20;26.60;;;;;;687020;28;803;-84
2022/03/11 00:33:22;;;;;;;;;;;20.20;26.80;;;;;;684056;28;1260;-84
2022/03/11 00:33:42;;;;;;;;;;;20.30;26.90;;;;;;684657;28;787;-83
2022/03/11 00:34:03;;;;;;;;;;;20.20;27.10;;;;;;687254;28;1346;-84
2022/03/11 00:34:23;;;;;;;;;;;20.20;27.00;;;;;;690033;28;819;-86
2022/03/11 00:34:44;;;;;;;;;;;20.20;27.20;;;;;;689280;28;1359;-86
2022/03/11 00:35:08;;;;;;;;;;;20.20;26.80;;;;;;689014;28;1308;-86
2022/03/11 00:35:29;;;;;;;;;;;20.20;26.80;;;;;;688982;28;1196;-83
2022/03/11 00:35:49;;;;;;;;;;;20.10;26.80;;;;;;686343;28;1358;-83
2022/03/11 00:36:10;;;;;;;;;;;20.10;26.60;;;;;;683697;29;1100;-85
2022/03/11 00:36:30;;;;;;;;;;;20.10;26.80;;;;;;680878;29;1178;-84
2022/03/11 00:36:51;;;;;;;;;;;20.10;26.60;;;;;;681662;29;1292;-84
2022/03/11 00:37:11;;;;;;;;;;;20.20;26.50;;;;;;684189;28;891;-84
2022/03/11 00:37:32;;;;;;;;;;;20.10;26.60;;;;;;684150;28;1186;-84
2022/03/11 00:37:53;;;;;;;;;;;20.10;26.60;;;;;;684061;28;1147;-84
2022/03/11 00:38:13;;;;;;;;;;;20.10;26.70;;;;;;686811;28;791;-85
2022/03/11 00:38:34;;;;;;;;;;;20.10;27.10;;;;;;689551;28;1268;-84
2022/03/11 00:38:55;;;;;;;;;;;20.10;26.70;;;;;;689170;28;1411;-88
2022/03/11 00:39:15;;;;;;;;;;;20.10;26.80;;;;;;689382;28;1084;-84
2022/03/11 00:39:36;;;;;;;;;;;20.10;26.60;;;;;;689060;28;1222;-84
2022/03/11 00:39:56;;;;;;;;;;;19.00;26.10;;;;;;686262;28;1326;-83
2022/03/11 00:40:17;;;;;;;;;;;20.10;26.60;;;;;;686082;28;1385;-84
2022/03/11 00:40:37;;;;;;;;;;;20.10;26.70;;;;;;684009;28;819;-84
2022/03/11 00:40:58;;;;;;;;;;;20.10;26.60;;;;;;686830;28;1249;-84
2022/03/11 00:41:18;;;;;;;;;;;20.10;26.60;;;;;;689406;28;1017;-83
2022/03/11 00:41:39;;;;;;;;;;;20.10;26.60;;;;;;689288;28;1312;-85
2022/03/11 00:42:00;;;;;;;;;;;20.10;26.80;;;;;;689131;28;1213;-84
2022/03/11 00:42:20;;;;;;;;;;;20.20;27.10;;;;;;689254;28;933;-84
2022/03/11 00:42:41;;;;;;;;;;;20.10;26.80;;;;;;686503;28;1262;-84
2022/03/11 00:43:02;;;;;;;;;;;20.10;26.80;;;;;;686583;28;1334;-84
2022/03/11 00:43:23;;;;;;;;;;;20.10;26.80;;;;;;686728;28;838;-85
2022/03/11 00:43:44;;;;;;;;;;;20.10;26.50;;;;;;686876;28;1184;-84
2022/03/11 00:44:04;;;;;;;;;;;20.10;27.00;;;;;;686417;28;1274;-84
2022/03/11 00:44:25;;;;;;;;;;;20.10;27.00;;;;;;686889;28;1236;-85
2022/03/11 00:44:45;;;;;;;;;;;20.10;26.50;;;;;;689571;28;1138;-85
2022/03/11 00:45:07;;;;;;;;;;;20.10;27.10;;;;;;688989;28;1172;-84
2022/03/11 00:45:28;;;;;;;;;;;20.10;26.50;;;;;;686559;28;1283;-84
2022/03/11 00:45:48;;;;;;;;;;;20.10;26.80;;;;;;686973;28;1372;-85
2022/03/11 00:46:09;;;;;;;;;;;20.20;26.70;;;;;;686076;28;1216;-86
2022/03/11 00:46:30;;;;;;;;;;;20.10;26.60;;;;;;687015;28;1271;-84
2022/03/11 00:46:50;;;;;;;;;;;20.10;26.70;;;;;;687413;28;1326;-84
2022/03/11 00:47:11;;;;;;;;;;;20.10;27.20;;;;;;687196;28;1425;-83
2022/03/11 00:47:32;;;;;;;;;;;20.10;27.10;;;;;;686550;28;1013;-84
2022/03/11 00:47:52;;;;;;;;;;;20.10;26.90;;;;;;683747;29;1198;-85
2022/03/11 00:48:13;;;;;;;;;;;20.10;27.20;;;;;;683786;29;1034;-85
2022/03/11 00:48:33;;;;;;;;;;;20.10;27.10;;;;;;684070;28;1177;-85
2022/03/11 00:48:54;;;;;;;;;;;20.10;26.60;;;;;;683644;28;1207;-85
2022/03/11 00:49:15;;;;;;;;;;;20.10;26.90;;;;;;683735;28;1284;-87
2022/03/11 00:49:36;;;;;;;;;;;20.10;26.80;;;;;;684018;28;1325;-86
2022/03/11 00:49:56;;;;;;;;;;;20.10;26.50;;;;;;686763;28;814;-86
2022/03/11 00:50:17;;;;;;;;;;;20.10;26.60;;;;;;689591;28;792;-84
2022/03/11 00:50:37;;;;;;;;;;;20.10;26.60;;;;;;691732;28;976;-84
2022/03/11 00:50:58;;;;;;;;;;;20.10;26.50;;;;;;691906;28;795;-84
2022/03/11 00:51:19;;;;;;;;;;;20.10;26.60;;;;;;689792;28;1218;-85
2022/03/11 00:51:39;;;;;;;;;;;20.10;27.00;;;;;;692119;28;1387;-86
2022/03/11 00:52:00;;;;;;;;;;;20.10;26.60;;;;;;691702;28;1906;-84
2022/03/11 00:52:20;;;;;;;;;;;20.10;26.50;;;;;;691654;28;977;-84
2022/03/11 00:52:42;;;;;;;;;;;20.10;26.50;;;;;;691442;28;1378;-87
2022/03/11 00:53:03;;;;;;;;;;;20.10;26.60;;;;;;691425;28;846;-85
2022/03/11 00:53:24;;;;;;;;;;;20.10;26.40;;;;;;689179;28;1542;-84
2022/03/11 00:53:45;;;;;;;;;;;20.10;26.50;;;;;;688613;28;1223;-85
2022/03/11 00:54:05;;;;;;;;;;;20.10;26.60;;;;;;685927;28;1275;-84
2022/03/11 00:54:26;;;;;;;;;;;20.10;26.60;;;;;;686138;28;965;-84
2022/03/11 00:54:47;;;;;;;;;;;20.10;26.80;;;;;;683303;28;1195;-83
2022/03/11 00:55:08;;;;;;;;;;;20.10;26.80;;;;;;680889;28;1296;-85
2022/03/11 00:55:28;;;;;;;;;;;20.10;27.10;;;;;;681074;29;1407;-84
2022/03/11 00:55:49;;;;;;;;;;;20.10;27.10;;;;;;681006;29;1270;-85
2022/03/11 00:56:09;;;;;;;;;;;20.10;27.00;;;;;;680800;29;1244;-84
2022/03/11 00:56:30;;;;;;;;;;;20.10;26.50;;;;;;678369;29;1488;-84
2022/03/11 00:56:51;;;;;;;;;;;20.10;26.50;;;;;;680926;28;1252;-84
2022/03/11 00:57:12;;;;;;;;;;;20.10;26.40;;;;;;683598;28;784;-84
2022/03/11 00:57:32;;;;;;;;;;;20.10;26.40;;;;;;686220;28;957;-86
2022/03/11 00:57:53;;;;;;;;;;;20.10;26.60;;;;;;688670;28;1243;-83
2022/03/11 00:58:13;;;;;;;;;;;20.10;27.40;;;;;;691661;28;894;-84
2022/03/11 00:58:34;;;;;;;;;;;20.10;26.60;;;;;;691280;28;1339;-84
2022/03/11 00:58:54;;;;;;;;;;;20.10;26.80;;;;;;688463;28;1221;-83
2022/03/11 00:59:15;;;;;;;;;;;20.10;27.50;;;;;;685784;28;1343;-86
2022/03/11 00:59:36;;;;;;;;;;;20.00;27.70;;;;;;685975;28;850;-83
2022/03/11 00:59:56;;;;;;;;;;;20.10;26.70;;;;;;686070;28;843;-83
2022/03/11 01:00:17;;;;;;;;;;;20.10;26.70;;;;;;686823;28;803;-83
2022/03/11 01:00:38;;;;;;;;;;;20.10;26.80;;;;;;686876;28;1356;-84
2022/03/11 01:00:58;;;;;;;;;;;20.10;27.10;;;;;;689529;28;1123;-83
2022/03/11 01:01:19;;;;;;;;;;;20.10;26.80;;;;;;691993;28;1088;-84
2022/03/11 01:01:39;;;;;;;;;;;20.10;26.40;;;;;;689058;28;1250;-84
2022/03/11 01:02:00;;;;;;;;;;;20.10;26.60;;;;;;686415;28;1232;-84
2022/03/11 01:02:20;;;;;;;;;;;20.10;26.60;;;;;;687156;28;1319;-83
2022/03/11 01:02:41;;;;;;;;;;;20.10;26.40;;;;;;688935;28;1053;-83
2022/03/11 01:03:02;;;;;;;;;;;20.10;27.10;;;;;;686494;28;1374;-83
2022/03/11 01:03:22;;;;;;;;;;;20.10;26.40;;;;;;687019;28;1243;-83
2022/03/11 01:03:43;;;;;;;;;;;20.10;26.60;;;;;;689434;28;1220;-83
2022/03/11 01:04:03;;;;;;;;;;;20.10;26.50;;;;;;687049;28;1166;-83
2022/03/11 01:04:24;;;;;;;;;;;20.10;26.30;;;;;;683942;28;1082;-84
2022/03/11 01:04:47;;;;;;;;;;;20.10;26.30;;;;;;684099;28;1293;-83
2022/03/11 01:05:07;;;;;;;;;;;20.10;26.40;;;;;;681419;29;1259;-84
2022/03/11 01:05:28;;;;;;;;;;;20.10;26.40;;;;;;682818;29;1171;-82
2022/03/11 01:05:49;;;;;;;;;;;20.10;26.40;;;;;;684456;29;1212;-85
2022/03/11 01:06:09;;;;;;;;;;;20.10;26.70;;;;;;687145;28;1202;-84
2022/03/11 01:06:30;;;;;;;;;;;20.00;27.00;;;;;;691805;28;1285;-84
2022/03/11 01:06:50;;;;;;;;;;;20.10;26.80;;;;;;690180;28;1260;-83
2022/03/11 01:07:11;;;;;;;;;;;19.80;26.30;;;;;;692071;28;1305;-83
2022/03/11 01:07:32;;;;;;;;;;;20.00;26.40;;;;;;689417;28;1391;-84
2022/03/11 01:07:52;;;;;;;;;;;20.00;26.30;;;;;;688804;28;1329;-83
2022/03/11 01:08:13;;;;;;;;;;;20.00;26.40;;;;;;685994;28;1388;-84
2022/03/11 01:08:33;;;;;;;;;;;20.10;26.40;;;;;;686542;28;964;-82
2022/03/11 01:08:54;;;;;;;;;;;20.00;26.30;;;;;;686950;28;1080;-82
2022/03/11 01:09:15;;;;;;;;;;;20.10;26.60;;;;;;687421;28;945;-87
2022/03/11 01:09:35;;;;;;;;;;;20.00;26.50;;;;;;687230;28;882;-84
2022/03/11 01:09:56;;;;;;;;;;;20.10;26.70;;;;;;689878;28;1082;-86
2022/03/11 01:10:16;;;;;;;;;;;20.10;26.50;;;;;;689809;28;1358;-83
2022/03/11 01:10:38;;;;;;;;;;;20.10;26.50;;;;;;689969;28;1287;-83
2022/03/11 01:10:58;;;;;;;;;;;20.00;26.30;;;;;;689762;28;886;-83
2022/03/11 01:11:19;;;;;;;;;;;20.00;26.70;;;;;;687520;28;1242;-83
2022/03/11 01:11:40;;;;;;;;;;;20.00;26.50;;;;;;689479;28;1422;-83
2022/03/11 01:12:01;;;;;;;;;;;20.00;26.20;;;;;;687784;28;2062;-83
2022/03/11 01:12:21;;;;;;;;;;;20.10;26.60;;;;;;687197;28;1237;-82
2022/03/11 01:12:45;;;;;;;;;;;20.00;26.50;;;;;;686987;28;1307;-84
2022/03/11 01:13:06;;;;;;;;;;;20.00;26.60;;;;;;688092;28;982;-84
2022/03/11 01:13:27;;;;;;;;;;;19.80;26.20;;;;;;686941;28;1252;-85
2022/03/11 01:13:47;;;;;;;;;;;20.00;26.30;;;;;;687510;28;1242;-82
2022/03/11 01:14:08;;;;;;;;;;;20.00;26.20;;;;;;690589;28;965;-83
2022/03/11 01:14:28;;;;;;;;;;;19.20;26.50;;;;;;689373;28;1114;-83
2022/03/11 01:14:49;;;;;;;;;;;20.00;26.70;;;;;;686873;28;1333;-83
2022/03/11 01:15:10;;;;;;;;;;;20.00;26.70;;;;;;686959;28;1107;-85
2022/03/11 01:15:30;;;;;;;;;;;20.00;26.30;;;;;;686676;28;1241;-84
2022/03/11 01:15:51;;;;;;;;;;;20.00;26.80;;;;;;686971;28;828;-84
2022/03/11 01:16:11;;;;;;;;;;;20.00;26.60;;;;;;684300;28;1205;-85
2022/03/11 01:16:32;;;;;;;;;;;20.00;26.50;;;;;;685186;28;1291;-83
2022/03/11 01:16:53;;;;;;;;;;;19.20;26.00;;;;;;687382;28;950;-84
2022/03/11 01:17:14;;;;;;;;;;;20.00;26.30;;;;;;687036;28;732;-84
2022/03/11 01:17:35;;;;;;;;;;;20.00;26.30;;;;;;688693;28;1338;-87
2022/03/11 01:17:55;;;;;;;;;;;20.00;26.50;;;;;;688874;28;1314;-87
2022/03/11 01:18:16;;;;;;;;;;;20.00;27.00;;;;;;689007;28;1138;-85
2022/03/11 01:18:37;;;;;;;;;;;20.00;26.60;;;;;;691158;28;1184;-85
2022/03/11 01:18:57;;;;;;;;;;;20.00;26.90;;;;;;692937;28;1232;-84
2022/03/11 01:19:18;;;;;;;;;;;20.00;26.60;;;;;;690008;28;1333;-84
2022/03/11 01:19:39;;;;;;;;;;;20.00;26.60;;;;;;687767;28;1251;-85
2022/03/11 01:19:59;;;;;;;;;;;20.00;26.50;;;;;;687581;28;1288;-83
2022/03/11 01:20:20;;;;;;;;;;;20.00;26.60;;;;;;689573;28;1039;-84
2022/03/11 01:20:40;;;;;;;;;;;20.00;26.80;;;;;;690016;28;810;-84
2022/03/11 01:21:02;;;;;;;;;;;20.00;26.60;;;;;;689784;28;1251;-84
2022/03/11 01:21:22;;;;;;;;;;;20.00;26.50;;;;;;689590;28;1274;-84
2022/03/11 01:21:43;;;;;;;;;;;20.00;26.40;;;;;;689964;28;1319;-83
2022/03/11 01:22:03;;;;;;;;;;;20.00;26.40;;;;;;692567;28;1216;-83
2022/03/11 01:22:24;;;;;;;;;;;20.00;26.60;;;;;;690057;28;1199;-84
2022/03/11 01:22:45;;;;;;;;;;;20.00;26.50;;;;;;687515;28;842;-87
2022/03/11 01:23:05;;;;;;;;;;;20.00;26.60;;;;;;686252;28;1176;-84
2022/03/11 01:23:26;;;;;;;;;;;20.00;26.50;;;;;;685903;28;1339;-84
2022/03/11 01:23:46;;;;;;;;;;;20.00;26.40;;;;;;683649;28;1248;-87
2022/03/11 01:24:07;;;;;;;;;;;20.00;26.50;;;;;;686390;28;1230;-84
2022/03/11 01:24:27;;;;;;;;;;;19.40;26.10;;;;;;688772;28;846;-85
2022/03/11 01:24:48;;;;;;;;;;;20.00;26.50;;;;;;686060;28;1233;-83
2022/03/11 01:25:09;;;;;;;;;;;20.00;26.40;;;;;;685861;28;1086;-86
2022/03/11 01:25:29;;;;;;;;;;;20.00;26.40;;;;;;683401;28;1326;-86
2022/03/11 01:25:50;;;;;;;;;;;19.90;26.60;;;;;;683371;28;1212;-83
2022/03/11 01:26:12;;;;;;;;;;;20.00;26.70;;;;;;686110;28;949;-82
2022/03/11 01:26:32;;;;;;;;;;;20.00;26.60;;;;;;684384;28;1322;-83
2022/03/11 01:26:53;;;;;;;;;;;20.00;26.70;;;;;;685732;28;1314;-82
2022/03/11 01:27:14;;;;;;;;;;;20.00;26.70;;;;;;686263;28;819;-84
2022/03/11 01:27:36;;;;;;;;;;;20.00;26.50;;;;;;685834;28;1325;-85
2022/03/11 01:27:57;;;;;;;;;;;20.00;26.80;;;;;;683011;28;1357;-83
2022/03/11 01:28:17;;;;;;;;;;;20.00;26.90;;;;;;683984;28;1369;-84
2022/03/11 01:28:41;;;;;;;;;;;20.00;26.90;;;;;;686418;28;865;-83
2022/03/11 01:29:02;;;;;;;;;;;20.00;26.90;;;;;;685757;28;1234;-85
2022/03/11 01:29:23;;;;;;;;;;;20.00;26.80;;;;;;685839;28;1160;-83
2022/03/11 01:29:44;;;;;;;;;;;20.00;26.50;;;;;;683853;28;1351;-83
2022/03/11 01:30:05;;;;;;;;;;;20.00;26.70;;;;;;685816;28;854;-86
2022/03/11 01:30:26;;;;;;;;;;;20.00;26.80;;;;;;683281;28;1525;-82
2022/03/11 01:30:46;;;;;;;;;;;20.00;26.70;;;;;;683694;28;894;-82
2022/03/11 01:31:08;;;;;;;;;;;20.00;26.50;;;;;;686121;28;796;-82
2022/03/11 01:31:28;;;;;;;;;;;20.00;26.60;;;;;;688935;28;882;-83
2022/03/11 01:31:50;;;;;;;;;;;20.00;26.80;;;;;;691155;28;1898;-82
2022/03/11 01:32:10;;;;;;;;;;;20.00;26.60;;;;;;688821;28;1244;-82
2022/03/11 01:32:31;;;;;;;;;;;20.00;26.40;;;;;;688615;28;1260;-82
2022/03/11 01:32:53;;;;;;;;;;;20.00;26.60;;;;;;688280;28;1379;-82
2022/03/11 01:33:13;;;;;;;;;;;20.00;26.80;;;;;;688295;28;1375;-82
2022/03/11 01:33:34;;;;;;;;;;;20.00;26.70;;;;;;685731;28;1203;-82
2022/03/11 01:33:55;;;;;;;;;;;20.00;26.90;;;;;;685892;28;842;-84
2022/03/11 01:34:15;;;;;;;;;;;19.90;26.80;;;;;;686308;28;831;-82
2022/03/11 01:34:36;;;;;;;;;;;20.00;26.80;;;;;;685742;28;1220;-84
2022/03/11 01:34:56;;;;;;;;;;;20.00;26.70;;;;;;685979;28;853;-83
2022/03/11 01:35:17;;;;;;;;;;;20.00;26.80;;;;;;688461;28;1222;-83
2022/03/11 01:35:37;;;;;;;;;;;20.00;26.70;;;;;;686013;28;1376;-85
2022/03/11 01:35:58;;;;;;;;;;;20.00;26.80;;;;;;685833;28;796;-85
2022/03/11 01:36:20;;;;;;;;;;;20.00;27.10;;;;;;685875;28;1335;-85
2022/03/11 01:36:41;;;;;;;;;;;20.00;26.60;;;;;;685706;28;1383;-82
2022/03/11 01:37:02;;;;;;;;;;;21.50;27.20;;;;;;686335;28;898;-84
2022/03/11 01:37:22;;;;;;;;;;;20.00;26.50;;;;;;686162;28;1233;-82
2022/03/11 01:37:43;;;;;;;;;;;20.00;26.50;;;;;;685796;28;1434;-85
2022/03/11 01:38:04;;;;;;;;;;;20.00;26.50;;;;;;685889;28;879;-85
2022/03/11 01:38:24;;;;;;;;;;;20.00;26.80;;;;;;686233;28;1368;-86
2022/03/11 01:38:45;;;;;;;;;;;20.00;26.80;;;;;;688565;28;869;-86
2022/03/11 01:39:05;;;;;;;;;;;20.00;26.70;;;;;;686080;28;842;-87
2022/03/11 01:39:26;;;;;;;;;;;20.00;26.40;;;;;;685808;28;1228;-85
2022/03/11 01:39:47;;;;;;;;;;;20.00;26.40;;;;;;685686;28;1181;-84
2022/03/11 01:40:07;;;;;;;;;;;20.00;26.50;;;;;;683309;28;1229;-84
2022/03/11 01:40:28;;;;;;;;;;;20.00;26.40;;;;;;685644;28;1284;-85
2022/03/11 01:40:49;;;;;;;;;;;20.00;26.60;;;;;;686106;28;807;-85
2022/03/11 01:41:09;;;;;;;;;;;20.00;26.60;;;;;;686006;28;1348;-85
2022/03/11 01:41:30;;;;;;;;;;;20.00;26.40;;;;;;685745;28;1157;-85
2022/03/11 01:41:50;;;;;;;;;;;19.90;26.70;;;;;;686196;28;874;-83
2022/03/11 01:42:11;;;;;;;;;;;19.90;26.60;;;;;;688650;28;822;-85
2022/03/11 01:42:36;;;;;;;;;;;19.90;26.70;;;;;;688552;28;1267;-86
2022/03/11 01:42:57;;;;;;;;;;;20.00;26.30;;;;;;689306;28;885;-86
2022/03/11 01:43:18;;;;;;;;;;;20.00;26.50;;;;;;691888;28;1320;-85
2022/03/11 01:43:58;;;;;;;;;;;20.00;26.30;;;;;;693955;28;845;-85
2022/03/11 01:44:19;;;;;;;;;;;20.00;26.40;;;;;;692558;28;1168;-86
2022/03/11 01:44:39;;;;;;;;;;;20.00;26.30;;;;;;688498;28;1266;-84
2022/03/11 01:45:01;;;;;;;;;;;20.00;26.30;;;;;;688699;28;751;-85
2022/03/11 01:45:21;;;;;;;;;;;20.00;26.20;;;;;;688219;28;1345;-86
2022/03/11 01:45:42;;;;;;;;;;;20.00;26.20;;;;;;688756;28;838;-85
2022/03/11 01:46:02;;;;;;;;;;;20.00;26.20;;;;;;688986;28;811;-83
2022/03/11 01:46:23;;;;;;;;;;;20.00;26.10;;;;;;689322;28;1428;-85
2022/03/11 01:46:44;;;;;;;;;;;20.00;26.30;;;;;;688927;28;1435;-84
2022/03/11 01:47:04;;;;;;;;;;;20.00;26.30;;;;;;689235;28;882;-83
2022/03/11 01:47:25;;;;;;;;;;;19.00;26.00;;;;;;688971;28;1272;-86
2022/03/11 01:47:46;;;;;;;;;;;20.00;26.60;;;;;;689022;28;799;-85
2022/03/11 01:48:07;;;;;;;;;;;20.00;26.60;;;;;;688581;28;1139;-84
2022/03/11 01:48:28;;;;;;;;;;;19.90;26.20;;;;;;686728;28;1243;-83
2022/03/11 01:48:51;;;;;;;;;;;19.90;26.10;;;;;;689025;28;835;-86
2022/03/11 01:49:12;;;;;;;;;;;20.00;26.00;;;;;;686019;28;1447;-83
2022/03/11 01:49:33;;;;;;;;;;;19.90;26.00;;;;;;683650;28;1229;-86
2022/03/11 01:49:54;;;;;;;;;;;20.00;26.10;;;;;;684499;28;1138;-86
2022/03/11 01:50:14;;;;;;;;;;;20.00;26.50;;;;;;687045;28;850;-85
2022/03/11 01:50:35;;;;;;;;;;;19.90;26.60;;;;;;686270;28;1227;-86
2022/03/11 01:50:56;;;;;;;;;;;20.00;26.10;;;;;;683974;28;1332;-85
2022/03/11 01:51:17;;;;;;;;;;;20.00;26.30;;;;;;686215;28;1171;-86
2022/03/11 01:51:39;;;;;;;;;;;20.00;26.30;;;;;;686306;28;1442;-86
2022/03/11 01:52:00;;;;;;;;;;;20.00;26.20;;;;;;686231;28;1959;-86
2022/03/11 01:52:21;;;;;;;;;;;19.90;26.40;;;;;;684291;28;1258;-85
2022/03/11 01:52:41;;;;;;;;;;;19.90;26.20;;;;;;687018;28;847;-85
2022/03/11 01:53:02;;;;;;;;;;;20.00;26.40;;;;;;689634;28;838;-85
2022/03/11 01:53:22;;;;;;;;;;;19.90;26.20;;;;;;691753;28;791;-85
2022/03/11 01:53:44;;;;;;;;;;;19.90;26.40;;;;;;688963;28;1391;-87
2022/03/11 01:54:04;;;;;;;;;;;19.90;26.10;;;;;;686678;28;1431;-85
2022/03/11 01:54:25;;;;;;;;;;;20.00;26.80;;;;;;689095;28;791;-86
2022/03/11 01:54:45;;;;;;;;;;;19.90;26.40;;;;;;686204;28;1192;-85
2022/03/11 01:55:06;;;;;;;;;;;19.90;26.20;;;;;;686221;28;1216;-85
2022/03/11 01:55:27;;;;;;;;;;;19.90;26.10;;;;;;686703;28;858;-83
2022/03/11 01:55:47;;;;;;;;;;;19.90;26.10;;;;;;686512;28;1221;-86
2022/03/11 01:56:08;;;;;;;;;;;19.90;25.90;;;;;;689026;28;835;-83
2022/03/11 01:56:30;;;;;;;;;;;19.90;25.90;;;;;;688962;28;1228;-85
2022/03/11 01:56:51;;;;;;;;;;;19.90;26.00;;;;;;686454;28;1223;-86
2022/03/11 01:57:12;;;;;;;;;;;19.90;26.10;;;;;;686308;28;1307;-86
2022/03/11 01:57:36;;;;;;;;;;;19.90;26.10;;;;;;687023;28;808;-86
2022/03/11 01:57:56;;;;;;;;;;;19.90;26.20;;;;;;689523;28;834;-85
2022/03/11 01:58:17;;;;;;;;;;;19.60;26.20;;;;;;686461;28;1221;-86
2022/03/11 01:58:38;;;;;;;;;;;19.90;26.30;;;;;;684265;28;1339;-86
2022/03/11 01:58:58;;;;;;;;;;;19.90;26.10;;;;;;687601;28;811;-87
2022/03/11 01:59:19;;;;;;;;;;;19.90;26.40;;;;;;686250;28;1218;-85
2022/03/11 01:59:40;;;;;;;;;;;19.90;26.20;;;;;;683870;28;1254;-88
2022/03/11 02:00:01;;;;;;;;;;;19.90;26.20;;;;;;683916;28;1319;-85
2022/03/11 02:00:22;;;;;;;;;;;19.90;26.40;;;;;;684123;28;1404;-86
2022/03/11 02:00:43;;;;;;;;;;;19.90;26.40;;;;;;683367;29;1314;-84
2022/03/11 02:01:04;;;;;;;;;;;19.90;26.20;;;;;;684191;28;1037;-84
2022/03/11 02:01:24;;;;;;;;;;;19.90;26.10;;;;;;686679;28;1236;-85
2022/03/11 02:01:45;;;;;;;;;;;19.90;26.10;;;;;;686293;28;1242;-87
2022/03/11 02:02:06;;;;;;;;;;;19.90;26.10;;;;;;683506;29;1210;-86
2022/03/11 02:02:26;;;;;;;;;;;19.90;26.30;;;;;;681251;29;1330;-86
2022/03/11 02:02:47;;;;;;;;;;;19.90;26.50;;;;;;680767;28;1134;-84
2022/03/11 02:03:08;;;;;;;;;;;19.90;26.20;;;;;;678288;29;1425;-85
2022/03/11 02:03:28;;;;;;;;;;;19.90;26.20;;;;;;678093;29;1236;-84
2022/03/11 02:03:49;;;;;;;;;;;19.90;26.10;;;;;;678674;29;1355;-83
2022/03/11 02:04:09;;;;;;;;;;;19.90;26.10;;;;;;681186;28;1350;-86
2022/03/11 02:04:30;;;;;;;;;;;19.90;26.10;;;;;;681176;29;1225;-88
2022/03/11 02:04:51;;;;;;;;;;;19.90;26.20;;;;;;683437;28;1471;-84
2022/03/11 02:05:14;;;;;;;;;;;19.90;26.20;;;;;;683788;28;1292;-84